Bel Air Beach, Iowa
Current Conditions -  °F | °C
As of 5:15 AM on Thursday 23 Oct 2014 (Local Time) from KSLB Reporting Station
Haze Haze  
Wind Chill: 57°   Ceiling: 300
Heat Index: 57°   Visibility: 3mi
Dew Point: 57°   Wind: 7mph
Humidity: 100%   Direction: 300°WNW
Pressure: 30.02"   Gusts: NA
Location:  42.674°N, 95.1635°W
Report Text: KSLB 231015Z AUTO 30006KT 3SM BR OVC003 14/14 A3002 RMK AO2
Loading
Personal Weather Stations






























Interactive Weather Map
Tropical Storm Tracking
New forecast layout! Learn more

10-Day Weather Forecast

Advertisements
Track Severe Weather on mobile